createdAt,value
2018-10-09T00:00:08.535Z,0.00
2018-10-09T00:01:08.571Z,0.00
2018-10-09T00:02:08.604Z,0.00
2018-10-09T00:03:08.639Z,0.00
2018-10-09T00:04:08.670Z,0.00
2018-10-09T00:05:08.708Z,0.00
2018-10-09T00:06:08.741Z,0.00
2018-10-09T00:07:08.773Z,0.00
2018-10-09T00:08:08.808Z,0.00
2018-10-09T00:09:08.841Z,0.00
2018-10-09T00:10:08.878Z,0.00
2018-10-09T00:11:08.909Z,0.00
2018-10-09T00:12:08.943Z,0.00
2018-10-09T00:13:08.978Z,0.00
2018-10-09T00:14:09.012Z,0.00
2018-10-09T00:15:09.046Z,0.00
2018-10-09T00:16:09.080Z,0.00
2018-10-09T00:17:09.130Z,0.00
2018-10-09T00:18:09.150Z,0.00
2018-10-09T00:19:09.182Z,0.00
2018-10-09T00:20:09.215Z,0.00
2018-10-09T00:21:09.247Z,0.00
2018-10-09T00:22:09.283Z,0.00
2018-10-09T00:23:09.316Z,0.00
2018-10-09T00:24:09.353Z,0.00
2018-10-09T00:25:09.415Z,0.00
2018-10-09T00:26:09.519Z,0.00
2018-10-09T00:27:09.458Z,0.00
2018-10-09T00:28:09.492Z,0.00
2018-10-09T00:29:09.519Z,0.00
2018-10-09T00:30:09.554Z,0.00
2018-10-09T00:31:09.589Z,0.00
2018-10-09T00:32:09.622Z,0.00
2018-10-09T00:33:09.655Z,0.00
2018-10-09T00:34:09.691Z,0.00
2018-10-09T00:35:09.725Z,0.00
2018-10-09T00:36:09.758Z,0.00
2018-10-09T00:37:09.792Z,0.00
2018-10-09T00:38:09.825Z,0.00
2018-10-09T00:39:09.861Z,0.00
2018-10-09T00:40:09.899Z,0.00
2018-10-09T00:41:09.928Z,0.00
2018-10-09T00:42:09.964Z,0.00
2018-10-09T00:43:10.003Z,0.00
2018-10-09T00:44:10.031Z,0.00
2018-10-09T00:45:10.063Z,0.00
2018-10-09T00:46:10.100Z,0.00
2018-10-09T00:47:10.133Z,0.00
2018-10-09T00:48:10.166Z,0.00
2018-10-09T00:49:10.201Z,0.00
2018-10-09T00:50:10.234Z,0.00
2018-10-09T00:51:10.267Z,0.00
2018-10-09T00:52:10.301Z,0.00
2018-10-09T00:53:10.336Z,0.00
2018-10-09T00:54:10.370Z,0.00
2018-10-09T00:55:10.403Z,0.00
2018-10-09T00:56:10.439Z,0.00
2018-10-09T00:57:10.472Z,0.00
2018-10-09T00:58:10.505Z,0.00
2018-10-09T00:59:10.544Z,0.00
2018-10-09T01:00:10.574Z,0.00
2018-10-09T01:01:10.611Z,0.00
2018-10-09T01:02:10.646Z,0.00
2018-10-09T01:03:10.675Z,0.00
2018-10-09T01:04:10.710Z,0.00
2018-10-09T01:05:10.744Z,0.00
2018-10-09T01:06:10.784Z,0.00
2018-10-09T01:07:10.812Z,0.00
2018-10-09T01:08:10.846Z,0.00
2018-10-09T01:09:10.972Z,0.00
2018-10-09T01:10:10.914Z,0.00
2018-10-09T01:11:10.948Z,0.00
2018-10-09T01:12:10.984Z,0.00
2018-10-09T01:13:11.016Z,0.00
2018-10-09T01:14:11.052Z,0.00
2018-10-09T01:15:11.084Z,0.00
2018-10-09T01:16:11.132Z,0.00
2018-10-09T01:17:11.152Z,0.00
2018-10-09T01:18:11.191Z,0.00
2018-10-09T01:19:11.221Z,0.00
2018-10-09T01:20:11.255Z,0.00
2018-10-09T01:21:11.294Z,0.00
2018-10-09T01:22:11.323Z,0.00
2018-10-09T01:23:11.355Z,0.00
2018-10-09T01:24:11.390Z,0.00
2018-10-09T01:25:11.424Z,0.00
2018-10-09T01:26:11.458Z,0.00
2018-10-09T01:27:11.492Z,0.00
2018-10-09T01:28:11.525Z,0.00
2018-10-09T01:29:11.560Z,0.00
2018-10-09T01:30:11.595Z,0.00
2018-10-09T01:31:11.630Z,0.00
2018-10-09T01:32:11.661Z,0.00
2018-10-09T01:33:11.697Z,0.00
2018-10-09T01:34:11.730Z,0.00
2018-10-09T01:35:11.763Z,0.00
2018-10-09T01:36:11.798Z,0.00
2018-10-09T01:37:11.831Z,0.00
2018-10-09T01:38:11.865Z,0.00
2018-10-09T01:39:11.902Z,0.00
2018-10-09T01:40:11.935Z,0.00
2018-10-09T01:41:11.968Z,0.00
2018-10-09T01:42:12.003Z,0.00
2018-10-09T01:43:12.036Z,0.00
2018-10-09T01:44:12.069Z,0.00
2018-10-09T01:45:12.109Z,0.00
2018-10-09T01:46:12.145Z,0.00
2018-10-09T01:47:12.171Z,0.00
2018-10-09T01:48:12.206Z,0.00
2018-10-09T01:49:12.242Z,0.00
2018-10-09T01:50:12.275Z,0.00
2018-10-09T01:51:12.308Z,0.00
2018-10-09T01:52:12.342Z,0.00
2018-10-09T01:53:12.376Z,0.00
2018-10-09T01:54:12.412Z,0.00
2018-10-09T01:55:12.445Z,0.00
2018-10-09T01:56:12.477Z,0.00
2018-10-09T01:57:12.511Z,0.00
2018-10-09T01:58:12.545Z,0.00
2018-10-09T01:59:12.579Z,0.00
2018-10-09T02:00:12.613Z,0.00
2018-10-09T02:01:12.648Z,0.00
2018-10-09T02:02:12.681Z,0.00
2018-10-09T02:03:12.715Z,0.00
2018-10-09T02:04:12.748Z,0.00
2018-10-09T02:05:12.785Z,0.00
2018-10-09T02:06:12.823Z,0.00
2018-10-09T02:07:12.865Z,0.00
2018-10-09T02:08:12.884Z,0.00
2018-10-09T02:09:12.918Z,0.00
2018-10-09T02:10:12.952Z,0.00
2018-10-09T02:11:12.987Z,0.00
2018-10-09T02:12:13.021Z,0.00
2018-10-09T02:13:13.057Z,0.00
2018-10-09T02:14:13.088Z,0.00
2018-10-09T02:15:13.122Z,0.00
2018-10-09T02:16:13.154Z,0.00
2018-10-09T02:17:13.191Z,0.00
2018-10-09T02:18:13.224Z,0.00
2018-10-09T02:19:13.258Z,0.00
2018-10-09T02:20:13.330Z,0.00
2018-10-09T02:21:13.324Z,0.00
2018-10-09T02:22:13.359Z,0.00
2018-10-09T02:23:13.392Z,0.00
2018-10-09T02:24:13.426Z,0.00
2018-10-09T02:25:13.460Z,0.00
2018-10-09T02:26:13.496Z,0.00
2018-10-09T02:27:13.532Z,0.00
2018-10-09T02:28:13.606Z,0.00
2018-10-09T02:29:13.596Z,0.00
2018-10-09T02:30:13.629Z,0.00
2018-10-09T02:31:13.663Z,0.00
2018-10-09T02:32:13.696Z,0.00
2018-10-09T02:33:13.730Z,0.00
2018-10-09T02:34:13.766Z,0.00
2018-10-09T02:35:13.798Z,0.00
2018-10-09T02:36:13.833Z,0.00
2018-10-09T02:37:13.866Z,0.00
2018-10-09T02:38:13.899Z,0.00
2018-10-09T02:39:13.934Z,0.00
2018-10-09T02:40:13.966Z,0.00
2018-10-09T02:41:14.000Z,0.00
2018-10-09T02:42:14.034Z,0.00
2018-10-09T02:43:14.076Z,0.00
2018-10-09T02:44:14.100Z,0.00
2018-10-09T02:45:14.138Z,0.00
2018-10-09T02:46:14.169Z,0.00
2018-10-09T02:47:14.203Z,0.00
2018-10-09T02:48:14.235Z,0.00
2018-10-09T02:49:14.269Z,0.00
2018-10-09T02:50:14.305Z,0.00
2018-10-09T02:51:14.338Z,0.00
2018-10-09T02:52:14.372Z,0.00
2018-10-09T02:53:14.405Z,0.00
2018-10-09T02:54:14.439Z,0.00
2018-10-09T02:55:14.472Z,0.00
2018-10-09T02:56:14.511Z,0.00
2018-10-09T02:57:14.540Z,0.00
2018-10-09T02:58:14.577Z,0.00
2018-10-09T02:59:14.607Z,0.00
2018-10-09T03:00:14.641Z,0.00
2018-10-09T03:01:14.673Z,0.00
2018-10-09T03:02:14.707Z,0.00
2018-10-09T03:03:14.744Z,0.00
2018-10-09T03:04:14.781Z,0.00
2018-10-09T03:05:14.808Z,0.00
2018-10-09T03:06:14.843Z,0.00
2018-10-09T03:07:14.876Z,0.00
2018-10-09T03:08:14.909Z,0.00
2018-10-09T03:09:14.944Z,0.00
2018-10-09T03:10:14.977Z,0.00
2018-10-09T03:11:15.012Z,0.00
2018-10-09T03:12:15.043Z,0.00
2018-10-09T03:13:15.077Z,0.00
2018-10-09T03:14:15.111Z,0.00
2018-10-09T03:15:15.144Z,0.00
2018-10-09T03:16:15.181Z,0.00
2018-10-09T03:17:15.211Z,0.00
2018-10-09T03:18:15.268Z,0.00
2018-10-09T03:19:15.278Z,0.00
2018-10-09T03:20:15.312Z,0.00
2018-10-09T03:21:15.344Z,0.00
2018-10-09T03:22:15.382Z,0.00
2018-10-09T03:23:15.414Z,0.00
2018-10-09T03:24:15.444Z,0.00
2018-10-09T03:25:15.477Z,0.00
2018-10-09T03:26:15.513Z,0.00
2018-10-09T03:27:15.548Z,0.00
2018-10-09T03:28:15.578Z,0.00
2018-10-09T03:29:15.613Z,0.00
2018-10-09T03:30:15.645Z,0.00
2018-10-09T03:31:15.682Z,0.00
2018-10-09T03:32:15.715Z,0.00
2018-10-09T03:33:15.744Z,0.00
2018-10-09T03:34:15.780Z,0.00
2018-10-09T03:35:15.814Z,0.00
2018-10-09T03:36:15.851Z,0.00
2018-10-09T03:37:15.879Z,0.00
2018-10-09T03:38:15.942Z,0.00
2018-10-09T03:39:15.948Z,0.00
2018-10-09T03:40:15.979Z,0.00
2018-10-09T03:41:16.013Z,0.00
2018-10-09T03:42:16.049Z,0.00
2018-10-09T03:43:16.082Z,0.00
2018-10-09T03:44:16.112Z,0.00
2018-10-09T03:45:16.146Z,0.00
2018-10-09T03:46:16.180Z,0.00
2018-10-09T03:47:16.212Z,0.00
2018-10-09T03:48:16.246Z,0.00
2018-10-09T03:49:16.279Z,0.00
2018-10-09T03:50:16.313Z,0.00
2018-10-09T03:51:16.346Z,0.00
2018-10-09T03:52:16.377Z,0.00
2018-10-09T03:53:16.412Z,0.00
2018-10-09T03:54:16.445Z,0.00
2018-10-09T03:55:16.479Z,0.00
2018-10-09T03:56:16.511Z,0.00
2018-10-09T03:57:16.546Z,0.00
2018-10-09T03:58:16.585Z,0.00
2018-10-09T03:59:16.612Z,0.00
2018-10-09T04:00:16.645Z,0.00
2018-10-09T04:01:16.678Z,0.00
2018-10-09T04:02:16.711Z,0.00
2018-10-09T04:03:16.746Z,0.00
2018-10-09T04:04:16.781Z,0.00
2018-10-09T04:05:16.815Z,0.00
2018-10-09T04:06:16.845Z,0.00
2018-10-09T04:07:16.878Z,0.00
2018-10-09T04:08:16.911Z,0.00
2018-10-09T04:09:16.949Z,0.00
2018-10-09T04:10:16.980Z,0.00
2018-10-09T04:11:17.012Z,0.00
2018-10-09T04:12:17.043Z,0.00
2018-10-09T04:13:17.091Z,0.00
2018-10-09T04:14:17.111Z,0.00
2018-10-09T04:15:17.147Z,0.00
2018-10-09T04:16:17.177Z,0.00
2018-10-09T04:17:17.211Z,0.00
2018-10-09T04:18:17.246Z,0.00
2018-10-09T04:19:17.316Z,0.00
2018-10-09T04:20:17.310Z,0.00
2018-10-09T04:21:17.346Z,0.00
2018-10-09T04:22:17.377Z,0.00
2018-10-09T04:23:17.411Z,0.00
2018-10-09T04:24:17.443Z,0.00
2018-10-09T04:25:17.479Z,0.00
2018-10-09T04:26:17.509Z,0.00
2018-10-09T04:27:17.544Z,0.00
2018-10-09T04:28:17.575Z,0.00
2018-10-09T04:29:17.660Z,0.00
2018-10-09T04:30:17.643Z,0.00
2018-10-09T04:31:17.676Z,0.00
2018-10-09T04:32:17.739Z,0.00
2018-10-09T04:33:17.745Z,0.00
2018-10-09T04:34:17.776Z,0.00
2018-10-09T04:35:17.893Z,0.00
2018-10-09T04:36:17.842Z,0.00
2018-10-09T04:37:17.875Z,0.00
2018-10-09T04:38:17.908Z,0.00
2018-10-09T04:39:17.942Z,0.00
2018-10-09T04:40:17.975Z,0.00
2018-10-09T04:41:18.011Z,0.00
2018-10-09T04:42:18.042Z,0.00
2018-10-09T04:43:18.075Z,0.00
2018-10-09T04:44:18.108Z,0.00
2018-10-09T04:45:18.143Z,0.00
2018-10-09T04:46:18.176Z,0.00
2018-10-09T04:47:18.208Z,0.00
2018-10-09T04:48:18.243Z,0.00
2018-10-09T04:49:18.274Z,0.00
2018-10-09T04:50:18.307Z,0.00
2018-10-09T04:51:18.341Z,0.00
2018-10-09T04:52:18.373Z,0.00
2018-10-09T04:53:18.407Z,0.00
2018-10-09T04:54:18.441Z,0.00
2018-10-09T04:55:18.473Z,0.00
2018-10-09T04:56:18.506Z,0.00
2018-10-09T04:57:18.541Z,0.00
2018-10-09T04:58:18.573Z,0.00
2018-10-09T04:59:18.606Z,0.00
2018-10-09T05:00:18.640Z,4.00
2018-10-09T05:01:18.672Z,0.00
2018-10-09T05:02:18.705Z,0.00
2018-10-09T05:03:18.744Z,4.00
2018-10-09T05:04:18.772Z,0.00
2018-10-09T05:05:18.806Z,4.00
2018-10-09T05:06:18.839Z,4.00
2018-10-09T05:07:18.872Z,4.00
2018-10-09T05:08:18.926Z,4.00
2018-10-09T05:09:18.939Z,4.00
2018-10-09T05:10:18.971Z,4.00
2018-10-09T05:11:19.005Z,8.00
2018-10-09T05:12:19.038Z,4.00
2018-10-09T05:13:19.073Z,8.00
2018-10-09T05:14:19.104Z,8.00
2018-10-09T05:15:19.141Z,8.00
2018-10-09T05:16:19.171Z,8.00
2018-10-09T05:17:19.205Z,12.00
2018-10-09T05:18:19.236Z,12.00
2018-10-09T05:19:19.274Z,12.00
2018-10-09T05:20:19.304Z,12.00
2018-10-09T05:21:19.337Z,16.00
2018-10-09T05:22:19.371Z,20.00
2018-10-09T05:23:19.407Z,24.00
2018-10-09T05:24:19.436Z,24.00
2018-10-09T05:25:19.471Z,24.00
2018-10-09T05:26:19.504Z,28.00
2018-10-09T05:27:19.536Z,32.00
2018-10-09T05:28:19.570Z,32.00
2018-10-09T05:29:19.607Z,36.00
2018-10-09T05:30:19.638Z,36.00
2018-10-09T05:31:19.751Z,44.00
2018-10-09T05:32:19.703Z,44.00
2018-10-09T05:33:19.735Z,48.00
2018-10-09T05:34:19.769Z,52.00
2018-10-09T05:35:19.803Z,56.00
2018-10-09T05:36:19.836Z,60.00
2018-10-09T05:37:19.869Z,68.00
2018-10-09T05:38:19.902Z,72.00
2018-10-09T05:39:19.935Z,80.00
2018-10-09T05:40:19.970Z,84.00
2018-10-09T05:41:20.001Z,88.00
2018-10-09T05:42:20.034Z,96.00
2018-10-09T05:43:20.069Z,100.00
2018-10-09T05:44:20.226Z,108.00
2018-10-09T05:45:20.141Z,112.00
2018-10-09T05:46:20.169Z,116.00
2018-10-09T05:47:20.201Z,124.00
2018-10-09T05:48:20.235Z,124.00
2018-10-09T05:49:20.268Z,124.00
2018-10-09T05:50:20.301Z,132.00
2018-10-09T05:51:20.339Z,132.00
2018-10-09T05:52:20.368Z,136.00
2018-10-09T05:53:20.400Z,140.00
2018-10-09T05:54:20.434Z,144.00
2018-10-09T05:55:20.468Z,148.00
2018-10-09T05:56:20.500Z,152.00
2018-10-09T05:57:20.537Z,156.00
2018-10-09T05:58:20.566Z,160.00
2018-10-09T05:59:20.601Z,160.00
2018-10-09T06:00:20.634Z,168.00
2018-10-09T06:01:20.667Z,172.00
2018-10-09T06:02:20.702Z,180.00
2018-10-09T06:03:20.735Z,188.00
2018-10-09T06:04:20.767Z,192.00
2018-10-09T06:05:20.806Z,200.00
2018-10-09T06:06:20.833Z,208.00
2018-10-09T06:07:20.868Z,216.00
2018-10-09T06:08:20.901Z,224.00
2018-10-09T06:09:20.933Z,236.00
2018-10-09T06:10:20.967Z,244.00
2018-10-09T06:11:21.007Z,248.00
2018-10-09T06:12:21.060Z,256.00
2018-10-09T06:13:21.067Z,260.00
2018-10-09T06:14:21.102Z,268.00
2018-10-09T06:15:21.144Z,272.00
2018-10-09T06:16:21.168Z,284.00
2018-10-09T06:17:21.204Z,284.00
2018-10-09T06:18:21.236Z,292.00
2018-10-09T06:19:21.270Z,292.00
2018-10-09T06:20:21.302Z,300.00
2018-10-09T06:21:21.334Z,304.00
2018-10-09T06:22:21.441Z,308.00
2018-10-09T06:23:21.403Z,316.00
2018-10-09T06:24:21.435Z,328.00
2018-10-09T06:25:21.471Z,340.00
2018-10-09T06:26:21.502Z,356.00
2018-10-09T06:27:21.537Z,368.00
2018-10-09T06:28:21.611Z,368.00
2018-10-09T06:29:21.612Z,368.00
2018-10-09T06:30:21.637Z,364.00
2018-10-09T06:31:21.671Z,368.00
2018-10-09T06:32:21.703Z,368.00
2018-10-09T06:33:21.744Z,376.00
2018-10-09T06:34:21.772Z,400.00
2018-10-09T06:35:21.806Z,420.00
2018-10-09T06:36:21.839Z,428.00
2018-10-09T06:37:21.928Z,440.00
2018-10-09T06:38:21.906Z,452.00
2018-10-09T06:39:21.942Z,468.00
2018-10-09T06:40:22.018Z,484.00
2018-10-09T06:41:22.009Z,500.00
2018-10-09T06:42:22.069Z,516.00
2018-10-09T06:43:22.074Z,520.00
2018-10-09T06:44:22.109Z,528.00
2018-10-09T06:45:22.142Z,540.00
2018-10-09T06:46:22.176Z,556.00
2018-10-09T06:47:22.224Z,576.00
2018-10-09T06:48:22.244Z,608.00
2018-10-09T06:49:22.279Z,620.00
2018-10-09T06:50:22.310Z,620.00
2018-10-09T06:51:22.344Z,612.00
2018-10-09T06:52:22.377Z,624.00
2018-10-09T06:53:22.475Z,628.00
2018-10-09T06:54:22.482Z,624.00
2018-10-09T06:55:22.480Z,592.00
2018-10-09T06:56:22.512Z,564.00
2018-10-09T06:57:22.548Z,552.00
2018-10-09T06:58:22.583Z,544.00
2018-10-09T06:59:22.621Z,540.00
2018-10-09T07:00:22.773Z,544.00
2018-10-09T07:01:22.688Z,536.00
2018-10-09T07:02:22.714Z,532.00
2018-10-09T07:03:22.756Z,528.00
2018-10-09T07:04:22.785Z,532.00
2018-10-09T07:05:22.818Z,548.00
2018-10-09T07:06:22.851Z,560.00
2018-10-09T07:07:22.908Z,584.00
2018-10-09T07:08:22.919Z,600.00
2018-10-09T07:09:22.981Z,620.00
2018-10-09T07:10:22.988Z,640.00
2018-10-09T07:11:23.088Z,656.00
2018-10-09T07:12:23.054Z,672.00
2018-10-09T07:13:23.088Z,688.00
2018-10-09T07:14:23.123Z,696.00
2018-10-09T07:15:23.156Z,708.00
2018-10-09T07:16:23.192Z,724.00
2018-10-09T07:17:23.228Z,744.00
2018-10-09T07:18:23.257Z,756.00
2018-10-09T07:19:23.297Z,780.00
2018-10-09T07:20:23.326Z,804.00
2018-10-09T07:21:23.361Z,816.00
2018-10-09T07:22:23.396Z,812.00
2018-10-09T07:23:23.428Z,812.00
2018-10-09T07:24:23.484Z,800.00
2018-10-09T07:25:23.497Z,776.00
2018-10-09T07:26:23.532Z,772.00
2018-10-09T07:27:23.604Z,772.00
2018-10-09T07:28:23.601Z,784.00
2018-10-09T07:29:23.636Z,796.00
2018-10-09T07:30:23.670Z,816.00
2018-10-09T07:31:23.704Z,828.00
2018-10-09T07:32:23.737Z,828.00
2018-10-09T07:33:23.770Z,836.00
2018-10-09T07:34:23.803Z,848.00
2018-10-09T07:35:23.839Z,860.00
2018-10-09T07:36:23.873Z,872.00
2018-10-09T07:37:23.928Z,892.00
2018-10-09T07:38:23.942Z,908.00
2018-10-09T07:39:23.975Z,924.00
2018-10-09T07:40:24.010Z,948.00
2018-10-09T07:41:24.043Z,976.00
2018-10-09T07:42:24.079Z,996.00
2018-10-09T07:43:24.114Z,1012.00
2018-10-09T07:44:24.254Z,1008.00
2018-10-09T07:45:24.184Z,996.00
2018-10-09T07:46:24.217Z,980.00
2018-10-09T07:47:24.252Z,960.00
2018-10-09T07:48:24.287Z,948.00
2018-10-09T07:49:24.320Z,936.00
2018-10-09T07:50:24.356Z,928.00
2018-10-09T07:51:24.416Z,928.00
2018-10-09T07:52:24.425Z,920.00
2018-10-09T07:53:24.459Z,916.00
2018-10-09T07:54:24.504Z,916.00
2018-10-09T07:55:24.531Z,916.00
2018-10-09T07:56:24.564Z,928.00
2018-10-09T07:57:24.604Z,944.00
2018-10-09T07:58:24.634Z,948.00
2018-10-09T07:59:24.669Z,956.00
2018-10-09T08:00:24.702Z,952.00
2018-10-09T08:01:24.738Z,944.00
2018-10-09T08:02:24.772Z,940.00
2018-10-09T08:03:24.811Z,948.00
2018-10-09T08:04:24.842Z,964.00
2018-10-09T08:05:24.878Z,988.00
2018-10-09T08:06:24.912Z,1016.00
2018-10-09T08:07:24.948Z,1040.00
2018-10-09T08:08:24.981Z,1060.00
2018-10-09T08:09:25.069Z,1072.00
2018-10-09T08:10:25.074Z,1080.00
2018-10-09T08:11:25.087Z,1092.00
2018-10-09T08:12:25.122Z,1100.00
2018-10-09T08:13:25.158Z,1108.00
2018-10-09T08:14:25.201Z,1132.00
2018-10-09T08:15:25.230Z,1128.00
2018-10-09T08:16:25.300Z,1140.00
2018-10-09T08:17:25.300Z,1152.00
2018-10-09T08:18:25.341Z,1176.00
2018-10-09T08:19:25.370Z,1204.00
2018-10-09T08:20:25.406Z,1252.00
2018-10-09T08:21:25.440Z,1320.00
2018-10-09T08:22:25.546Z,1364.00
2018-10-09T08:23:25.512Z,1392.00
2018-10-09T08:24:25.550Z,1420.00
2018-10-09T08:25:25.581Z,1468.00
2018-10-09T08:26:25.617Z,1516.00
2018-10-09T08:27:25.656Z,1572.00
2018-10-09T08:28:25.687Z,1624.00
2018-10-09T08:29:25.724Z,1672.00
2018-10-09T08:30:25.769Z,1704.00
2018-10-09T08:31:25.842Z,1676.00
2018-10-09T08:32:25.915Z,1696.00
2018-10-09T08:33:25.867Z,1712.00
2018-10-09T08:34:25.965Z,1744.00
2018-10-09T08:35:25.951Z,1804.00
2018-10-09T08:36:25.974Z,1844.00
2018-10-09T08:37:26.011Z,1868.00
2018-10-09T08:38:26.046Z,1860.00
2018-10-09T08:39:26.103Z,1892.00
2018-10-09T08:40:26.178Z,1880.00
2018-10-09T08:41:26.226Z,1900.00
2018-10-09T08:42:26.202Z,1880.00
2018-10-09T08:43:26.229Z,1860.00
2018-10-09T08:44:26.261Z,1788.00
2018-10-09T08:45:26.298Z,1740.00
2018-10-09T08:46:26.460Z,1676.00
2018-10-09T08:47:26.370Z,1668.00
2018-10-09T08:48:26.407Z,1668.00
2018-10-09T08:49:26.443Z,1624.00
2018-10-09T08:50:26.482Z,1580.00
2018-10-09T08:51:26.516Z,1520.00
2018-10-09T08:52:26.557Z,1476.00
2018-10-09T08:53:26.593Z,1444.00
2018-10-09T08:54:26.627Z,1424.00
2018-10-09T08:55:26.665Z,1404.00
2018-10-09T08:56:26.698Z,1384.00
2018-10-09T08:57:26.797Z,1372.00
2018-10-09T08:58:26.772Z,1364.00
2018-10-09T08:59:26.810Z,1388.00
2018-10-09T09:00:26.842Z,1384.00
2018-10-09T09:01:26.881Z,1368.00
2018-10-09T09:02:26.916Z,1344.00
2018-10-09T09:03:26.969Z,1308.00
2018-10-09T09:04:26.991Z,1288.00
2018-10-09T09:05:27.027Z,1236.00
2018-10-09T09:06:27.063Z,1208.00
2018-10-09T09:07:27.101Z,1180.00
2018-10-09T09:08:27.137Z,1168.00
2018-10-09T09:09:27.209Z,1152.00
2018-10-09T09:10:27.211Z,1144.00
2018-10-09T09:11:27.248Z,1144.00
2018-10-09T09:12:27.288Z,1164.00
2018-10-09T09:13:27.321Z,1212.00
2018-10-09T09:14:27.359Z,1264.00
2018-10-09T09:15:27.480Z,1336.00
2018-10-09T09:16:27.432Z,1420.00
2018-10-09T09:17:27.466Z,1512.00
2018-10-09T09:18:27.512Z,1644.00
2018-10-09T09:19:27.542Z,1844.00
2018-10-09T09:20:27.627Z,1920.00
2018-10-09T09:21:27.614Z,2088.00
2018-10-09T09:22:27.659Z,2332.00
2018-10-09T09:23:27.689Z,2564.00
2018-10-09T09:24:27.725Z,2688.00
2018-10-09T09:25:27.764Z,2576.00
2018-10-09T09:26:27.849Z,2424.00
2018-10-09T09:27:27.899Z,2312.00
2018-10-09T09:28:27.870Z,2248.00
2018-10-09T09:29:27.911Z,2224.00
2018-10-09T09:30:27.945Z,2308.00
2018-10-09T09:31:27.983Z,2488.00
2018-10-09T09:32:28.020Z,2424.00
2018-10-09T09:33:28.058Z,2472.00
2018-10-09T09:34:28.095Z,2672.00
2018-10-09T09:35:28.132Z,3628.00
2018-10-09T09:36:28.178Z,3640.00
2018-10-09T09:37:28.208Z,4500.00
2018-10-09T09:38:28.243Z,4720.00
2018-10-09T09:39:28.283Z,8132.00
2018-10-09T09:40:28.317Z,12840.00
2018-10-09T09:41:28.355Z,14116.00
2018-10-09T09:42:28.393Z,16224.00
2018-10-09T09:43:28.433Z,16704.00
2018-10-09T09:44:28.472Z,16192.00
2018-10-09T09:45:28.508Z,16928.00
2018-10-09T09:46:28.546Z,14624.00
2018-10-09T09:47:28.589Z,11544.00
2018-10-09T09:48:28.623Z,10916.00
2018-10-09T09:49:28.665Z,13288.00
2018-10-09T09:50:28.704Z,14232.00
2018-10-09T09:51:28.745Z,15968.00
2018-10-09T09:52:28.785Z,20960.00
2018-10-09T09:53:28.824Z,17856.00
2018-10-09T09:54:28.865Z,19936.00
2018-10-09T09:55:28.908Z,21280.00
2018-10-09T09:56:28.945Z,24320.00
2018-10-09T09:57:28.985Z,26272.00
2018-10-09T09:58:29.156Z,23008.00
2018-10-09T09:59:29.070Z,21920.00
2018-10-09T10:00:29.109Z,24960.00
2018-10-09T10:01:29.151Z,35072.00
2018-10-09T10:02:29.192Z,27264.00
2018-10-09T10:03:29.254Z,33184.00
2018-10-09T10:04:29.276Z,42784.00
2018-10-09T10:05:29.318Z,39584.00
2018-10-09T10:06:29.363Z,29152.00
2018-10-09T10:07:29.405Z,19168.00
2018-10-09T10:08:29.445Z,19424.00
2018-10-09T10:09:29.488Z,19488.00
2018-10-09T10:10:29.531Z,25216.00
2018-10-09T10:11:29.573Z,23648.00
2018-10-09T10:12:29.619Z,20512.00
2018-10-09T10:13:29.657Z,21984.00
2018-10-09T10:14:29.702Z,29280.00
2018-10-09T10:15:29.745Z,28800.00
2018-10-09T10:16:29.786Z,13792.00
2018-10-09T10:17:29.832Z,11496.00
2018-10-09T10:18:29.874Z,15520.00
2018-10-09T10:19:29.917Z,16384.00
2018-10-09T10:20:29.959Z,20928.00
2018-10-09T10:21:30.078Z,25824.00
2018-10-09T10:22:30.045Z,18624.00
2018-10-09T10:23:30.089Z,21408.00
2018-10-09T10:24:30.134Z,13236.00
2018-10-09T10:25:30.175Z,27296.00
2018-10-09T10:26:30.220Z,37920.00
2018-10-09T10:27:30.264Z,32512.00
2018-10-09T10:28:30.306Z,44704.00
2018-10-09T10:29:30.352Z,40160.00
2018-10-09T10:30:30.393Z,37792.00
2018-10-09T10:31:30.438Z,29600.00
2018-10-09T10:32:30.481Z,36928.00
2018-10-09T10:33:30.526Z,36736.00
2018-10-09T10:34:30.577Z,17472.00
2018-10-09T10:35:30.629Z,4460.00
2018-10-09T10:36:30.661Z,3616.00
2018-10-09T10:37:30.707Z,4788.00
2018-10-09T10:38:30.749Z,9652.00
2018-10-09T10:39:30.793Z,9444.00
2018-10-09T10:40:30.837Z,8284.00
2018-10-09T10:41:30.883Z,9100.00
2018-10-09T10:42:30.928Z,8668.00
2018-10-09T10:43:30.974Z,9560.00
2018-10-09T10:44:31.015Z,16128.00
2018-10-09T10:45:31.067Z,27776.00
2018-10-09T10:46:31.103Z,33088.00
2018-10-09T10:47:31.149Z,33600.00
2018-10-09T10:48:31.192Z,34624.00
2018-10-09T10:49:31.247Z,37824.00
2018-10-09T10:50:31.280Z,37888.00
2018-10-09T10:51:31.325Z,36256.00
2018-10-09T10:52:31.368Z,23616.00
2018-10-09T10:53:31.415Z,10468.00
2018-10-09T10:54:31.459Z,9436.00
2018-10-09T10:55:31.504Z,15200.00
2018-10-09T10:56:31.551Z,20064.00
2018-10-09T10:57:31.600Z,20832.00
2018-10-09T10:58:31.638Z,20896.00
2018-10-09T10:59:31.685Z,11248.00
2018-10-09T11:00:31.727Z,4068.00
2018-10-09T11:01:31.857Z,2956.00
2018-10-09T11:02:31.819Z,2704.00
2018-10-09T11:03:31.864Z,2636.00
2018-10-09T11:04:31.908Z,3052.00
2018-10-09T11:05:31.954Z,4368.00
2018-10-09T11:06:31.998Z,5916.00
2018-10-09T11:07:32.043Z,6660.00
2018-10-09T11:08:32.085Z,5964.00
2018-10-09T11:09:32.129Z,5720.00
2018-10-09T11:10:32.176Z,6932.00
2018-10-09T11:11:32.219Z,7540.00
2018-10-09T11:12:32.263Z,7348.00
2018-10-09T11:13:32.305Z,2700.00
2018-10-09T11:14:32.358Z,2192.00
2018-10-09T11:15:32.395Z,2040.00
2018-10-09T11:16:32.437Z,1936.00
2018-10-09T11:17:32.481Z,1844.00
2018-10-09T11:18:32.524Z,1788.00
2018-10-09T11:19:32.570Z,1752.00
2018-10-09T11:20:32.609Z,1724.00
2018-10-09T11:21:32.751Z,1716.00
2018-10-09T11:22:32.696Z,1708.00
2018-10-09T11:23:32.738Z,1688.00
2018-10-09T11:24:32.783Z,1708.00
2018-10-09T11:25:32.824Z,1740.00
2018-10-09T11:26:32.867Z,1768.00
2018-10-09T11:27:32.909Z,1824.00
2018-10-09T11:28:32.951Z,1856.00
2018-10-09T11:29:32.995Z,1692.00
2018-10-09T11:30:33.051Z,1548.00
2018-10-09T11:31:33.079Z,1512.00
2018-10-09T11:32:33.157Z,1536.00
2018-10-09T11:33:33.162Z,1596.00
2018-10-09T11:34:33.235Z,1656.00
2018-10-09T11:35:33.244Z,1708.00
2018-10-09T11:36:33.286Z,1748.00
2018-10-09T11:37:33.328Z,1748.00
2018-10-09T11:38:33.373Z,1720.00
2018-10-09T11:39:33.413Z,1700.00
2018-10-09T11:40:33.456Z,1680.00
2018-10-09T11:41:33.495Z,1664.00
2018-10-09T11:42:33.542Z,1668.00
2018-10-09T11:43:33.579Z,1688.00
2018-10-09T11:44:33.618Z,1712.00
2018-10-09T11:45:33.659Z,1736.00
2018-10-09T11:46:33.704Z,1768.00
2018-10-09T11:47:33.743Z,1816.00
2018-10-09T11:48:33.794Z,1904.00
2018-10-09T11:49:33.826Z,1972.00
2018-10-09T11:50:33.865Z,2120.00
2018-10-09T11:51:33.907Z,2364.00
2018-10-09T11:52:33.946Z,2604.00
2018-10-09T11:53:33.987Z,2736.00
2018-10-09T11:54:34.029Z,3288.00
2018-10-09T11:55:34.073Z,3620.00
2018-10-09T11:56:34.109Z,4824.00
2018-10-09T11:57:34.151Z,4196.00
2018-10-09T11:58:34.227Z,6276.00
2018-10-09T11:59:34.240Z,5868.00
2018-10-09T12:00:34.275Z,4956.00
2018-10-09T12:01:34.315Z,5420.00
2018-10-09T12:02:34.356Z,5528.00
2018-10-09T12:03:34.395Z,5100.00
2018-10-09T12:04:34.444Z,4224.00
2018-10-09T12:05:34.507Z,4040.00
2018-10-09T12:06:34.523Z,4252.00
2018-10-09T12:07:34.559Z,3956.00
2018-10-09T12:08:34.608Z,3804.00
2018-10-09T12:09:34.643Z,3736.00
2018-10-09T12:10:34.683Z,3372.00
2018-10-09T12:11:34.727Z,3288.00
2018-10-09T12:12:34.769Z,3948.00
2018-10-09T12:13:34.807Z,3680.00
2018-10-09T12:14:34.848Z,4092.00
2018-10-09T12:15:34.888Z,4156.00
2018-10-09T12:16:34.931Z,5016.00
2018-10-09T12:17:34.971Z,7628.00
2018-10-09T12:18:35.011Z,11288.00
2018-10-09T12:19:35.053Z,11104.00
2018-10-09T12:20:35.094Z,12208.00
2018-10-09T12:21:35.157Z,11092.00
2018-10-09T12:22:35.178Z,9492.00
2018-10-09T12:23:35.219Z,8020.00
2018-10-09T12:24:35.260Z,7264.00
2018-10-09T12:25:35.302Z,6728.00
2018-10-09T12:26:35.347Z,7560.00
2018-10-09T12:27:35.408Z,7024.00
2018-10-09T12:28:35.427Z,5612.00
2018-10-09T12:29:35.470Z,2948.00
2018-10-09T12:30:35.509Z,2772.00
2018-10-09T12:31:35.553Z,2516.00
2018-10-09T12:32:35.594Z,2552.00
2018-10-09T12:33:35.639Z,2964.00
2018-10-09T12:34:35.677Z,3400.00
2018-10-09T12:35:35.719Z,3712.00
2018-10-09T12:36:35.760Z,3792.00
2018-10-09T12:37:35.831Z,4560.00
2018-10-09T12:38:35.844Z,4396.00